Time;durP1;ratioP1;P1;durP2;ratioP2;P2;SDS_P1;SDS_P2;PMS_P1;PMS_P2;Temp;Humidity;BMP_temperature;BMP_pressure;BME280_temperature;BME280_humidity;BME280_pressure;Samples;Min_cycle;Max_cycle;Signal;HPM_P1;HPM_P2
2022/03/15 00:01:06;;;;;;;36.33;16.60;;;;;;;;;;4877663;29;20041;-71
2022/03/15 00:03:31;;;;;;;28.52;15.80;;;;;;;;;;4877809;29;20108;-70
2022/03/15 00:05:58;;;;;;;28.98;14.70;;;;;;;;;;4889334;29;20045;-74
2022/03/15 00:08:26;;;;;;;25.70;15.85;;;;;;;;;;4877545;29;20421;-73
2022/03/15 00:10:57;;;;;;;29.10;16.70;;;;;;;;;;4877358;29;20037;-74
2022/03/15 00:13:22;;;;;;;28.70;14.25;;;;;;;;;;4877630;29;20152;-75
2022/03/15 00:15:49;;;;;;;24.42;13.20;;;;;;;;;;4877575;29;20120;-68
2022/03/15 00:18:14;;;;;;;23.25;13.48;;;;;;;;;;4877591;29;20429;-68
2022/03/15 00:20:40;;;;;;;22.02;13.27;;;;;;;;;;4877535;29;20021;-71
2022/03/15 00:23:06;;;;;;;20.45;11.75;;;;;;;;;;4877248;29;20048;-67
2022/03/15 00:25:32;;;;;;;20.45;11.90;;;;;;;;;;4876438;29;20089;-69
2022/03/15 00:27:57;;;;;;;22.60;12.60;;;;;;;;;;4877204;29;20044;-68
2022/03/15 00:30:24;;;;;;;26.55;11.55;;;;;;;;;;4891464;29;20025;-65
2022/03/15 00:32:51;;;;;;;30.70;12.27;;;;;;;;;;4877128;29;20100;-66
2022/03/15 00:35:18;;;;;;;17.77;10.52;;;;;;;;;;4890875;29;20078;-65
2022/03/15 00:37:48;;;;;;;22.65;10.98;;;;;;;;;;4877585;29;20489;-67
2022/03/15 00:40:16;;;;;;;16.55;10.52;;;;;;;;;;4877393;29;20025;-64
2022/03/15 00:42:46;;;;;;;18.80;10.93;;;;;;;;;;4880853;29;20029;-67
2022/03/15 00:45:15;;;;;;;18.75;11.00;;;;;;;;;;4881139;29;20033;-69
2022/03/15 00:47:40;;;;;;;29.38;11.52;;;;;;;;;;4895467;29;20495;-73
2022/03/15 00:50:07;;;;;;;20.42;11.40;;;;;;;;;;4880820;29;20123;-68
2022/03/15 00:52:32;;;;;;;22.83;11.80;;;;;;;;;;4895104;29;20032;-65
2022/03/15 00:54:58;;;;;;;26.08;12.10;;;;;;;;;;4880689;29;20105;-73
2022/03/15 00:57:24;;;;;;;20.15;11.35;;;;;;;;;;4879717;29;20418;-71
2022/03/15 00:59:50;;;;;;;20.67;11.77;;;;;;;;;;4880675;29;20481;-67
2022/03/15 01:02:17;;;;;;;25.42;13.45;;;;;;;;;;4908225;29;20055;-71
2022/03/15 01:04:43;;;;;;;22.17;12.98;;;;;;;;;;4880558;29;20047;-73
2022/03/15 01:07:12;;;;;;;21.08;12.20;;;;;;;;;;4875541;29;20036;-71
2022/03/15 01:09:41;;;;;;;17.85;11.00;;;;;;;;;;4880128;29;20049;-70
2022/03/15 01:12:08;;;;;;;16.15;10.75;;;;;;;;;;4879856;29;20041;-63
2022/03/15 01:14:35;;;;;;;16.15;9.75;;;;;;;;;;4879874;29;20101;-69
2022/03/15 01:17:03;;;;;;;27.05;13.00;;;;;;;;;;4879027;29;20397;-73
2022/03/15 01:19:29;;;;;;;16.88;9.48;;;;;;;;;;4879775;29;20071;-69
2022/03/15 01:21:56;;;;;;;17.83;9.68;;;;;;;;;;4893926;29;20036;-73
2022/03/15 01:24:21;;;;;;;16.50;10.07;;;;;;;;;;4879961;29;20472;-74
2022/03/15 01:26:51;;;;;;;16.98;10.57;;;;;;;;;;4879866;29;20050;-69
2022/03/15 01:29:18;;;;;;;17.25;10.10;;;;;;;;;;4879718;29;20037;-64
2022/03/15 01:31:44;;;;;;;16.10;10.02;;;;;;;;;;4879725;29;20124;-75
2022/03/15 01:34:13;;;;;;;18.33;10.95;;;;;;;;;;4878675;29;20044;-62
2022/03/15 01:36:39;;;;;;;15.73;10.07;;;;;;;;;;4879952;29;20500;-67
2022/03/15 01:39:05;;;;;;;17.95;9.85;;;;;;;;;;4875964;29;20029;-70
2022/03/15 01:41:38;;;;;;;13.18;8.52;;;;;;;;;;4879628;29;20584;-72
2022/03/15 01:44:12;;;;;;;16.88;10.23;;;;;;;;;;4879814;29;20453;-71
2022/03/15 01:46:38;;;;;;;18.60;9.95;;;;;;;;;;4879579;29;20048;-73
2022/03/15 01:49:04;;;;;;;17.75;10.60;;;;;;;;;;4879392;29;20024;-70
2022/03/15 01:51:30;;;;;;;19.38;9.80;;;;;;;;;;4877688;29;20036;-66
2022/03/15 01:53:56;;;;;;;20.73;10.20;;;;;;;;;;4876585;29;20093;-72
2022/03/15 01:56:23;;;;;;;17.15;10.18;;;;;;;;;;4891734;29;20037;-71
2022/03/15 01:58:51;;;;;;;20.08;11.02;;;;;;;;;;4877940;29;20083;-68
2022/03/15 02:01:17;;;;;;;15.50;10.25;;;;;;;;;;4877800;29;20075;-68
2022/03/15 02:03:43;;;;;;;16.25;9.82;;;;;;;;;;4879212;29;20036;-67
2022/03/15 02:06:09;;;;;;;18.85;10.30;;;;;;;;;;4879127;29;20199;-66
2022/03/15 02:08:35;;;;;;;27.77;13.95;;;;;;;;;;4876425;29;20026;-67
2022/03/15 02:11:02;;;;;;;34.60;15.35;;;;;;;;;;4878000;29;20048;-67
2022/03/15 02:13:29;;;;;;;21.95;12.93;;;;;;;;;;4874044;29;20056;-68
2022/03/15 02:15:55;;;;;;;20.73;12.63;;;;;;;;;;4878578;29;20088;-65
2022/03/15 02:18:23;;;;;;;26.63;13.95;;;;;;;;;;4878668;29;20057;-71
2022/03/15 02:20:49;;;;;;;20.85;12.75;;;;;;;;;;4878833;29;20168;-69
2022/03/15 02:23:16;;;;;;;22.65;13.02;;;;;;;;;;4879443;29;20171;-72
2022/03/15 02:25:42;;;;;;;21.02;12.57;;;;;;;;;;4879232;29;20433;-70
2022/03/15 02:28:08;;;;;;;25.25;14.10;;;;;;;;;;4877802;29;20040;-66
2022/03/15 02:30:34;;;;;;;29.83;16.38;;;;;;;;;;4878946;29;20044;-63
2022/03/15 02:33:00;;;;;;;31.45;16.65;;;;;;;;;;4878449;29;20396;-62
2022/03/15 02:35:26;;;;;;;33.88;16.73;;;;;;;;;;4878378;29;20040;-62
2022/03/15 02:37:52;;;;;;;28.65;15.98;;;;;;;;;;4878638;29;20035;-67
2022/03/15 02:40:18;;;;;;;34.80;16.67;;;;;;;;;;4875861;29;20043;-68
2022/03/15 02:42:43;;;;;;;30.77;16.40;;;;;;;;;;4878433;29;20029;-71
2022/03/15 02:45:10;;;;;;;32.72;17.13;;;;;;;;;;4878177;29;20041;-65
2022/03/15 02:47:37;;;;;;;29.58;16.52;;;;;;;;;;4877940;29;20013;-63
2022/03/15 02:50:03;;;;;;;37.75;16.75;;;;;;;;;;4878048;29;20120;-64
2022/03/15 02:52:29;;;;;;;33.97;17.42;;;;;;;;;;4878533;29;20081;-65
2022/03/15 02:54:58;;;;;;;33.63;17.13;;;;;;;;;;4878459;29;20041;-63
2022/03/15 02:57:24;;;;;;;34.75;18.88;;;;;;;;;;4878200;29;20413;-67
2022/03/15 02:59:52;;;;;;;34.35;17.63;;;;;;;;;;4877726;29;20041;-66
2022/03/15 03:02:18;;;;;;;41.33;17.75;;;;;;;;;;4878313;29;20447;-67
2022/03/15 03:04:44;;;;;;;39.28;17.00;;;;;;;;;;4878151;29;20117;-64
2022/03/15 03:07:12;;;;;;;36.05;16.83;;;;;;;;;;4878359;29;20112;-65
2022/03/15 03:09:38;;;;;;;37.15;17.65;;;;;;;;;;4878226;29;20116;-65
2022/03/15 03:12:04;;;;;;;33.15;17.70;;;;;;;;;;4874227;29;20077;-67
2022/03/15 03:14:30;;;;;;;34.40;16.60;;;;;;;;;;4877888;29;20749;-63
2022/03/15 03:16:56;;;;;;;31.30;16.88;;;;;;;;;;4878248;29;20406;-67
2022/03/15 03:19:23;;;;;;;32.00;19.50;;;;;;;;;;4878091;29;20481;-65
2022/03/15 03:21:49;;;;;;;34.40;18.27;;;;;;;;;;4877888;29;20033;-64
2022/03/15 03:24:19;;;;;;;29.70;17.40;;;;;;;;;;4878158;29;20093;-64
2022/03/15 03:26:44;;;;;;;49.47;23.65;;;;;;;;;;4878006;29;20488;-71
2022/03/15 03:29:10;;;;;;;39.85;20.10;;;;;;;;;;4877421;29;20041;-64
2022/03/15 03:31:43;;;;;;;43.70;21.95;;;;;;;;;;4878011;29;20060;-62
2022/03/15 03:34:11;;;;;;;40.22;18.17;;;;;;;;;;4877970;29;20033;-70
2022/03/15 03:36:37;;;;;;;32.70;16.85;;;;;;;;;;4877768;29;20037;-67
2022/03/15 03:39:06;;;;;;;24.63;13.30;;;;;;;;;;4877843;29;20053;-70
2022/03/15 03:41:31;;;;;;;20.95;11.65;;;;;;;;;;4877524;29;20057;-67
2022/03/15 03:43:57;;;;;;;18.40;9.80;;;;;;;;;;4875264;29;20522;-69
2022/03/15 03:46:23;;;;;;;18.10;9.32;;;;;;;;;;4878170;29;20516;-66
2022/03/15 03:48:53;;;;;;;17.02;9.40;;;;;;;;;;4877910;29;20055;-68
2022/03/15 03:51:19;;;;;;;16.35;9.07;;;;;;;;;;4877636;29;20044;-75
2022/03/15 03:53:44;;;;;;;16.67;9.70;;;;;;;;;;4877340;29;20433;-74
2022/03/15 03:56:12;;;;;;;15.70;9.55;;;;;;;;;;4877547;29;20041;-65
2022/03/15 03:58:38;;;;;;;16.50;10.43;;;;;;;;;;4876967;29;20041;-67
2022/03/15 04:01:04;;;;;;;15.98;9.60;;;;;;;;;;4877191;29;20431;-71
2022/03/15 04:03:31;;;;;;;20.05;10.65;;;;;;;;;;4877319;29;20488;-62
2022/03/15 04:06:04;;;;;;;19.58;10.20;;;;;;;;;;4877160;29;20124;-65
2022/03/15 04:08:31;;;;;;;21.52;10.57;;;;;;;;;;4877319;29;20045;-70
2022/03/15 04:10:57;;;;;;;19.70;10.00;;;;;;;;;;4877413;29;20073;-69
2022/03/15 04:13:26;;;;;;;19.58;11.05;;;;;;;;;;4875970;29;20535;-70
2022/03/15 04:15:53;;;;;;;19.40;10.50;;;;;;;;;;4877877;29;20255;-70
2022/03/15 04:18:18;;;;;;;14.85;9.32;;;;;;;;;;4881419;29;20543;-67
2022/03/15 04:20:44;;;;;;;23.92;10.43;;;;;;;;;;4881080;29;20156;-68
2022/03/15 04:23:11;;;;;;;32.58;12.40;;;;;;;;;;4880852;29;20041;-67
2022/03/15 04:25:37;;;;;;;42.47;12.40;;;;;;;;;;4881103;29;20025;-65
2022/03/15 04:28:04;;;;;;;26.85;11.20;;;;;;;;;;4880921;29;20177;-64
2022/03/15 04:30:31;;;;;;;26.75;11.80;;;;;;;;;;4880957;29;20093;-68
2022/03/15 04:32:58;;;;;;;29.33;12.45;;;;;;;;;;4880870;29;20033;-71
2022/03/15 04:35:24;;;;;;;26.83;10.80;;;;;;;;;;4880727;29;20029;-69
2022/03/15 04:37:54;;;;;;;23.95;10.95;;;;;;;;;;4880344;29;20408;-66
2022/03/15 04:40:20;;;;;;;25.55;12.00;;;;;;;;;;4880635;29;20025;-69
2022/03/15 04:42:48;;;;;;;21.30;10.77;;;;;;;;;;4880848;29;20049;-72
2022/03/15 04:45:15;;;;;;;17.95;10.40;;;;;;;;;;4881049;29;20028;-66
2022/03/15 04:47:41;;;;;;;18.92;10.00;;;;;;;;;;4879668;29;20069;-69
2022/03/15 04:50:09;;;;;;;23.23;12.70;;;;;;;;;;4880331;29;20025;-66
2022/03/15 04:52:35;;;;;;;39.88;13.80;;;;;;;;;;4880345;29;20120;-70
2022/03/15 04:55:03;;;;;;;33.38;13.98;;;;;;;;;;4880395;29;20029;-69
2022/03/15 04:57:28;;;;;;;40.58;20.42;;;;;;;;;;4880329;29;20064;-69
2022/03/15 04:59:55;;;;;;;24.65;12.93;;;;;;;;;;4877662;29;20026;-68
2022/03/15 05:02:22;;;;;;;34.63;12.25;;;;;;;;;;4876170;29;20037;-71
2022/03/15 05:04:47;;;;;;;31.67;12.32;;;;;;;;;;4880321;29;20029;-69
2022/03/15 05:07:13;;;;;;;19.02;11.38;;;;;;;;;;4876598;29;20052;-68
2022/03/15 05:11:05;;;;;;;36.88;13.30;;;;;;;;;;4879257;29;20041;-73
2022/03/15 05:12:25;;;;;;;23.63;12.13;;;;;;;;;;4879953;29;20041;-75
2022/03/15 05:14:51;;;;;;;22.20;11.95;;;;;;;;;;4878605;29;20512;-73
2022/03/15 05:17:18;;;;;;;28.15;12.57;;;;;;;;;;4872674;29;20037;-74
2022/03/15 05:19:47;;;;;;;23.33;12.57;;;;;;;;;;4873329;29;20037;-72
2022/03/15 05:22:13;;;;;;;21.60;13.00;;;;;;;;;;4877047;29;20048;-75
2022/03/15 05:24:39;;;;;;;42.50;14.48;;;;;;;;;;4878860;29;20060;-67
2022/03/15 05:27:05;;;;;;;30.35;14.40;;;;;;;;;;4878068;29;20127;-72
2022/03/15 05:29:30;;;;;;;31.38;13.60;;;;;;;;;;4878709;29;20048;-70
2022/03/15 05:31:56;;;;;;;33.13;13.98;;;;;;;;;;4878765;29;20103;-69
2022/03/15 05:34:22;;;;;;;33.45;13.93;;;;;;;;;;4877843;29;20044;-69
2022/03/15 05:36:48;;;;;;;40.90;14.45;;;;;;;;;;4878844;29;20068;-70
2022/03/15 05:39:14;;;;;;;35.00;14.98;;;;;;;;;;4877523;29;20059;-74
2022/03/15 05:41:40;;;;;;;33.42;15.15;;;;;;;;;;4879219;29;20044;-72
2022/03/15 05:44:08;;;;;;;40.95;16.27;;;;;;;;;;4879019;29;20373;-70
2022/03/15 05:46:34;;;;;;;33.22;16.98;;;;;;;;;;4879983;29;20072;-68
2022/03/15 05:49:00;;;;;;;41.88;17.27;;;;;;;;;;4879829;29;20032;-70
2022/03/15 05:51:27;;;;;;;36.80;16.70;;;;;;;;;;4879090;29;20170;-68
2022/03/15 05:53:52;;;;;;;66.75;18.70;;;;;;;;;;4879776;29;20033;-73
2022/03/15 05:56:18;;;;;;;34.08;16.95;;;;;;;;;;4877177;29;20049;-76
2022/03/15 05:58:44;;;;;;;55.13;18.85;;;;;;;;;;4879380;29;20040;-78
2022/03/15 06:01:10;;;;;;;64.65;18.25;;;;;;;;;;4872484;29;20057;-74
2022/03/15 06:03:35;;;;;;;38.63;18.25;;;;;;;;;;4866817;29;20384;-77
2022/03/15 06:06:01;;;;;;;31.05;16.70;;;;;;;;;;4860754;29;20093;-75
2022/03/15 06:08:27;;;;;;;33.13;15.52;;;;;;;;;;4860085;29;20384;-76
2022/03/15 06:10:53;;;;;;;40.42;16.67;;;;;;;;;;4860127;29;20050;-72
2022/03/15 06:13:19;;;;;;;26.92;15.98;;;;;;;;;;4861129;29;20085;-80
2022/03/15 06:15:45;;;;;;;42.10;19.65;;;;;;;;;;4870898;29;20064;-70
2022/03/15 06:18:10;;;;;;;46.20;17.67;;;;;;;;;;4889056;29;20060;-74
2022/03/15 06:20:38;;;;;;;32.38;16.55;;;;;;;;;;4887846;29;20508;-71
2022/03/15 06:23:05;;;;;;;36.17;16.10;;;;;;;;;;4888838;29;20123;-73
2022/03/15 06:25:31;;;;;;;26.90;14.25;;;;;;;;;;4886399;29;20196;-72
2022/03/15 06:27:58;;;;;;;38.45;16.13;;;;;;;;;;4895794;29;20040;-73
2022/03/15 06:30:24;;;;;;;29.48;15.50;;;;;;;;;;4897530;29;20119;-72
2022/03/15 06:32:50;;;;;;;33.17;16.08;;;;;;;;;;4896791;29;20116;-77
2022/03/15 06:35:15;;;;;;;34.25;16.50;;;;;;;;;;4886967;29;20401;-71
2022/03/15 06:37:45;;;;;;;51.53;16.38;;;;;;;;;;4878565;29;20033;-70
2022/03/15 06:40:15;;;;;;;39.15;14.15;;;;;;;;;;4878615;29;20150;-74
2022/03/15 06:42:43;;;;;;;24.00;12.20;;;;;;;;;;4878848;29;20033;-76
2022/03/15 06:45:10;;;;;;;28.52;13.57;;;;;;;;;;4878601;29;20168;-71
2022/03/15 06:47:38;;;;;;;30.63;15.40;;;;;;;;;;4877946;29;20128;-68
2022/03/15 06:50:08;;;;;;;31.73;15.52;;;;;;;;;;4877420;29;20037;-67
2022/03/15 06:52:37;;;;;;;30.48;15.45;;;;;;;;;;4878822;29;20060;-69
2022/03/15 06:55:03;;;;;;;29.48;15.73;;;;;;;;;;4878272;29;20025;-71
2022/03/15 06:57:30;;;;;;;29.45;14.88;;;;;;;;;;4878109;29;20033;-70
2022/03/15 06:59:56;;;;;;;28.80;13.35;;;;;;;;;;4874442;29;20544;-69
2022/03/15 07:02:23;;;;;;;22.48;12.57;;;;;;;;;;4867981;29;20041;-72
2022/03/15 07:04:48;;;;;;;27.63;13.60;;;;;;;;;;4859998;29;20033;-70
2022/03/15 07:07:15;;;;;;;22.35;12.75;;;;;;;;;;4859970;29;20046;-70
2022/03/15 07:09:42;;;;;;;28.55;13.38;;;;;;;;;;4860005;29;20032;-69
2022/03/15 07:12:10;;;;;;;27.00;13.52;;;;;;;;;;4859706;29;20366;-82
2022/03/15 07:14:37;;;;;;;23.95;13.75;;;;;;;;;;4859502;29;20042;-70
2022/03/15 07:17:04;;;;;;;20.25;12.30;;;;;;;;;;4871401;29;20496;-71
2022/03/15 07:19:31;;;;;;;21.45;11.95;;;;;;;;;;4877880;29;20437;-71
2022/03/15 07:21:57;;;;;;;19.58;12.25;;;;;;;;;;4866592;29;20033;-72
2022/03/15 07:24:23;;;;;;;20.80;12.25;;;;;;;;;;4871551;29;20593;-68
2022/03/15 07:26:49;;;;;;;17.52;11.18;;;;;;;;;;4871979;29;20061;-74
2022/03/15 07:29:14;;;;;;;23.40;11.18;;;;;;;;;;4875976;29;20029;-70
2022/03/15 07:31:40;;;;;;;17.27;11.52;;;;;;;;;;4870333;29;20374;-70
2022/03/15 07:34:06;;;;;;;18.30;11.02;;;;;;;;;;4877576;29;20033;-69
2022/03/15 07:36:35;;;;;;;18.52;11.18;;;;;;;;;;4874370;29;20045;-69
2022/03/15 07:39:03;;;;;;;16.25;11.10;;;;;;;;;;4875392;29;20029;-68
2022/03/15 07:41:30;;;;;;;19.50;10.82;;;;;;;;;;4875693;29;20107;-69
2022/03/15 07:43:56;;;;;;;18.83;11.20;;;;;;;;;;4876655;29;20026;-66
2022/03/15 07:46:23;;;;;;;20.88;11.70;;;;;;;;;;4876373;29;20085;-67
2022/03/15 07:48:48;;;;;;;20.65;13.27;;;;;;;;;;4874656;29;20496;-69
2022/03/15 07:51:14;;;;;;;19.58;12.45;;;;;;;;;;4876053;29;21635;-70
2022/03/15 07:53:40;;;;;;;21.10;12.50;;;;;;;;;;4880437;29;20025;-71
2022/03/15 07:56:06;;;;;;;21.33;12.68;;;;;;;;;;4896928;29;20046;-72
2022/03/15 07:58:31;;;;;;;22.33;13.10;;;;;;;;;;4881641;29;20025;-74
2022/03/15 08:00:59;;;;;;;18.77;11.95;;;;;;;;;;4880214;29;20041;-75
2022/03/15 08:03:24;;;;;;;20.45;13.30;;;;;;;;;;4880334;29;20025;-74
2022/03/15 08:05:51;;;;;;;16.15;11.80;;;;;;;;;;4880418;29;20029;-75
2022/03/15 08:08:17;;;;;;;17.58;11.40;;;;;;;;;;4879452;29;20116;-74
2022/03/15 08:10:43;;;;;;;15.70;10.60;;;;;;;;;;4880104;29;20044;-72
2022/03/15 08:13:10;;;;;;;18.13;11.23;;;;;;;;;;4880581;29;20306;-77
2022/03/15 08:15:36;;;;;;;21.63;11.57;;;;;;;;;;4879976;29;20091;-70
2022/03/15 08:18:03;;;;;;;17.00;11.02;;;;;;;;;;4881041;29;20060;-73
2022/03/15 08:20:32;;;;;;;18.30;11.90;;;;;;;;;;4880355;29;20048;-72
2022/03/15 08:22:59;;;;;;;17.60;11.45;;;;;;;;;;4893904;29;20135;-71
2022/03/15 08:25:26;;;;;;;19.42;12.00;;;;;;;;;;4879993;29;20040;-71
2022/03/15 08:27:52;;;;;;;20.70;12.05;;;;;;;;;;4877774;29;20100;-72
2022/03/15 08:30:20;;;;;;;24.38;12.65;;;;;;;;;;4880296;29;20504;-74
2022/03/15 08:32:46;;;;;;;22.00;14.70;;;;;;;;;;4880311;29;20029;-71
2022/03/15 08:35:12;;;;;;;21.55;13.77;;;;;;;;;;4879667;29;20070;-71
2022/03/15 08:37:38;;;;;;;20.52;12.82;;;;;;;;;;4880570;29;20429;-70
2022/03/15 08:40:06;;;;;;;23.25;13.18;;;;;;;;;;4880121;29;20029;-67
2022/03/15 08:42:32;;;;;;;27.23;13.75;;;;;;;;;;4880227;29;20333;-68
2022/03/15 08:44:58;;;;;;;23.92;14.70;;;;;;;;;;4879203;29;20480;-69
2022/03/15 08:47:24;;;;;;;22.45;14.82;;;;;;;;;;4880287;29;20085;-71
2022/03/15 08:49:51;;;;;;;23.52;15.98;;;;;;;;;;4879632;29;20064;-71
2022/03/15 08:52:17;;;;;;;23.35;14.48;;;;;;;;;;4878243;29;20021;-69
2022/03/15 08:54:43;;;;;;;24.13;15.60;;;;;;;;;;4880015;29;20040;-68
2022/03/15 08:57:09;;;;;;;25.20;16.63;;;;;;;;;;4877679;29;20025;-71
2022/03/15 08:59:35;;;;;;;27.75;17.92;;;;;;;;;;4877864;29;20385;-69
2022/03/15 09:02:01;;;;;;;27.40;17.98;;;;;;;;;;4878540;29;20025;-70
2022/03/15 09:04:28;;;;;;;30.80;18.20;;;;;;;;;;4880536;29;20044;-70
2022/03/15 09:06:53;;;;;;;25.73;16.35;;;;;;;;;;4880223;29;20029;-72
2022/03/15 09:09:21;;;;;;;31.08;16.73;;;;;;;;;;4879959;29;20116;-70
2022/03/15 09:11:48;;;;;;;28.33;17.85;;;;;;;;;;4880332;29;20385;-70
2022/03/15 09:14:14;;;;;;;28.98;17.33;;;;;;;;;;4880403;29;20092;-70
2022/03/15 09:16:40;;;;;;;24.95;15.32;;;;;;;;;;4880538;29;20113;-68
2022/03/15 09:19:08;;;;;;;31.70;16.52;;;;;;;;;;4880844;29;20033;-71
2022/03/15 09:21:34;;;;;;;27.27;16.23;;;;;;;;;;4880595;29;20520;-69
2022/03/15 09:24:00;;;;;;;24.13;15.63;;;;;;;;;;4881037;29;20077;-70
2022/03/15 09:26:26;;;;;;;32.92;17.25;;;;;;;;;;4880787;29;20040;-69
2022/03/15 09:28:53;;;;;;;28.88;16.20;;;;;;;;;;4880850;29;20041;-71
2022/03/15 09:31:20;;;;;;;27.65;16.20;;;;;;;;;;4880421;29;20029;-71
2022/03/15 09:33:46;;;;;;;29.85;16.15;;;;;;;;;;4880281;29;20087;-71
2022/03/15 09:36:15;;;;;;;26.83;15.77;;;;;;;;;;4880165;29;20033;-69
2022/03/15 09:38:43;;;;;;;23.52;16.08;;;;;;;;;;4880463;29;20045;-71
2022/03/15 09:41:09;;;;;;;29.65;16.60;;;;;;;;;;4880771;29;20056;-70
2022/03/15 09:43:45;;;;;;;27.98;15.90;;;;;;;;;;4880193;29;20468;-70
2022/03/15 09:46:12;;;;;;;28.60;17.92;;;;;;;;;;4880998;29;20111;-68
2022/03/15 09:48:43;;;;;;;29.02;18.58;;;;;;;;;;4879833;29;20046;-69
2022/03/15 09:51:14;;;;;;;26.63;17.83;;;;;;;;;;4879934;29;20037;-74
2022/03/15 09:53:42;;;;;;;30.92;18.50;;;;;;;;;;4880011;29;20392;-73
2022/03/15 09:56:08;;;;;;;31.05;17.45;;;;;;;;;;4880034;29;20037;-75
2022/03/15 09:58:35;;;;;;;25.35;16.10;;;;;;;;;;4880064;29;20041;-70
2022/03/15 10:01:00;;;;;;;23.00;15.80;;;;;;;;;;4879945;29;20382;-70
2022/03/15 10:03:26;;;;;;;26.10;14.90;;;;;;;;;;4879899;29;20041;-78
2022/03/15 10:05:54;;;;;;;30.17;17.92;;;;;;;;;;4880180;29;20040;-77
2022/03/15 10:08:22;;;;;;;24.77;13.13;;;;;;;;;;4879604;29;20163;-74
2022/03/15 10:10:52;;;;;;;17.98;12.80;;;;;;;;;;4880076;29;20488;-71
2022/03/15 10:13:19;;;;;;;23.35;12.68;;;;;;;;;;4879069;29;20040;-75
2022/03/15 10:15:52;;;;;;;17.42;12.98;;;;;;;;;;4879777;29;20048;-68
2022/03/15 10:18:18;;;;;;;20.23;11.70;;;;;;;;;;4879621;29;20116;-69
2022/03/15 10:20:44;;;;;;;19.83;12.20;;;;;;;;;;4879655;29;20279;-69
2022/03/15 10:23:10;;;;;;;17.67;11.63;;;;;;;;;;4879801;29;20045;-70
2022/03/15 10:25:40;;;;;;;23.98;14.10;;;;;;;;;;4879744;29;20065;-69
2022/03/15 10:28:08;;;;;;;18.13;11.60;;;;;;;;;;4879565;29;20049;-72
2022/03/15 10:30:36;;;;;;;18.02;12.05;;;;;;;;;;4879695;29;20039;-74
2022/03/15 10:33:03;;;;;;;18.38;12.63;;;;;;;;;;4879388;29;20033;-69
2022/03/15 10:35:40;;;;;;;21.95;12.25;;;;;;;;;;4879406;29;20457;-70
2022/03/15 10:38:07;;;;;;;17.02;11.93;;;;;;;;;;4879422;29;20041;-70
2022/03/15 10:40:34;;;;;;;19.70;12.63;;;;;;;;;;4879331;29;20025;-70
2022/03/15 10:43:15;;;;;;;19.63;11.75;;;;;;;;;;4879525;29;20040;-71
2022/03/15 10:45:50;;;;;;;17.25;11.68;;;;;;;;;;4877432;29;20065;-67
2022/03/15 10:48:25;;;;;;;21.52;12.23;;;;;;;;;;4868309;29;20033;-69
2022/03/15 10:50:59;;;;;;;17.60;11.07;;;;;;;;;;4874123;29;20081;-69
2022/03/15 10:53:37;;;;;;;16.10;10.90;;;;;;;;;;4876184;29;20036;-69
2022/03/15 10:56:21;;;;;;;20.77;11.02;;;;;;;;;;4878617;29;20053;-70
2022/03/15 10:58:51;;;;;;;;;;;;;;;;;;4875829;29;20452;-70
2022/03/15 11:01:19;;;;;;;14.25;10.10;;;;;;;;;;4877063;29;19915;-69
2022/03/15 11:03:58;;;;;;;14.93;10.88;;;;;;;;;;4879028;29;20035;-71
2022/03/15 11:06:32;;;;;;;17.92;10.23;;;;;;;;;;4878132;29;20040;-69
2022/03/15 11:08:59;;;;;;;19.02;10.35;;;;;;;;;;4904119;29;20120;-70
2022/03/15 11:11:26;;;;;;;17.50;10.45;;;;;;;;;;4878020;29;20048;-69
2022/03/15 11:14:00;;;;;;;13.75;9.70;;;;;;;;;;4878098;29;20049;-71
2022/03/15 11:16:30;;;;;;;18.27;10.77;;;;;;;;;;4878004;29;20068;-67
2022/03/15 11:18:57;;;;;;;15.88;10.30;;;;;;;;;;4872248;29;20432;-68
2022/03/15 11:21:24;;;;;;;16.73;10.40;;;;;;;;;;4865937;29;20088;-71
2022/03/15 11:23:51;;;;;;;16.88;10.25;;;;;;;;;;4876946;29;20384;-71
2022/03/15 11:26:22;;;;;;;16.48;9.45;;;;;;;;;;4877375;29;20033;-70
2022/03/15 11:28:48;;;;;;;14.13;8.80;;;;;;;;;;4878303;29;20052;-70
2022/03/15 11:31:15;;;;;;;14.43;8.75;;;;;;;;;;4878297;29;20129;-70
2022/03/15 11:33:45;;;;;;;13.55;9.02;;;;;;;;;;4878722;29;20059;-68
2022/03/15 11:36:12;;;;;;;17.17;9.18;;;;;;;;;;4878650;29;20048;-70
2022/03/15 11:38:41;;;;;;;14.05;8.40;;;;;;;;;;4878317;29;20116;-73
2022/03/15 11:41:09;;;;;;;16.98;8.25;;;;;;;;;;4879874;29;20119;-70
2022/03/15 11:44:00;;;;;;;10.68;7.72;;;;;;;;;;4878819;29;20025;-69
2022/03/15 11:46:46;;;;;;;14.77;8.02;;;;;;;;;;4876253;29;20044;-69
2022/03/15 11:49:24;;;;;;;12.45;7.13;;;;;;;;;;4878437;29;20084;-69
2022/03/15 11:51:57;;;;;;;14.07;8.52;;;;;;;;;;4877163;29;20528;-69
2022/03/15 11:54:44;;;;;;;16.60;9.00;;;;;;;;;;4877522;29;20071;-77
2022/03/15 11:57:47;;;;;;;12.82;8.30;;;;;;;;;;4877058;29;20060;-77
2022/03/15 12:00:47;;;;;;;11.20;6.85;;;;;;;;;;4874079;29;20069;-79
2022/03/15 12:03:18;;;;;;;15.52;9.90;;;;;;;;;;4877728;29;20044;-70
2022/03/15 12:05:48;;;;;;;15.23;9.23;;;;;;;;;;4877902;29;20081;-69
2022/03/15 12:08:20;;;;;;;14.90;7.72;;;;;;;;;;4892184;29;20055;-69
2022/03/15 12:11:01;;;;;;;12.55;6.03;;;;;;;;;;4878008;29;20048;-69
2022/03/15 12:13:43;;;;;;;13.07;7.40;;;;;;;;;;4877952;29;20108;-70
2022/03/15 12:16:15;;;;;;;13.10;7.05;;;;;;;;;;4878083;29;20049;-69
2022/03/15 12:18:48;;;;;;;13.75;6.85;;;;;;;;;;4877774;29;20045;-70
2022/03/15 12:21:14;;;;;;;14.20;6.93;;;;;;;;;;4878502;29;20045;-69
2022/03/15 12:23:43;;;;;;;11.15;6.55;;;;;;;;;;4878665;29;20025;-68
2022/03/15 12:26:22;;;;;;;12.07;7.45;;;;;;;;;;4878836;29;20532;-69
2022/03/15 12:29:06;;;;;;;10.63;6.65;;;;;;;;;;4879180;29;20052;-70
2022/03/15 12:31:43;;;;;;;16.20;8.15;;;;;;;;;;4878346;29;20041;-68
2022/03/15 12:34:10;;;;;;;15.50;8.77;;;;;;;;;;4878400;29;20037;-70
2022/03/15 12:36:47;;;;;;;11.02;7.32;;;;;;;;;;4878562;29;20489;-70
2022/03/15 12:39:15;;;;;;;11.77;7.13;;;;;;;;;;4880265;29;20110;-71
2022/03/15 12:41:42;;;;;;;13.18;6.85;;;;;;;;;;4881226;29;20029;-71
2022/03/15 12:44:09;;;;;;;11.90;6.70;;;;;;;;;;4881556;29;20049;-71
2022/03/15 12:46:38;;;;;;;8.57;5.50;;;;;;;;;;4881535;29;20040;-69
2022/03/15 12:49:06;;;;;;;8.10;4.60;;;;;;;;;;4881648;29;20073;-70
2022/03/15 12:51:42;;;;;;;11.50;5.78;;;;;;;;;;4881433;29;20033;-70
2022/03/15 12:54:11;;;;;;;10.80;5.70;;;;;;;;;;4881498;29;20105;-72
2022/03/15 12:56:46;;;;;;;10.13;5.38;;;;;;;;;;4881315;29;20476;-70
2022/03/15 12:59:23;;;;;;;9.68;5.72;;;;;;;;;;4894869;29;20079;-70
2022/03/15 13:01:50;;;;;;;8.07;6.15;;;;;;;;;;4880829;29;20033;-70
2022/03/15 13:04:17;;;;;;;7.82;5.20;;;;;;;;;;4878766;29;20368;-70
2022/03/15 13:06:44;;;;;;;10.10;5.28;;;;;;;;;;4880762;29;20045;-69
2022/03/15 13:09:25;;;;;;;8.68;5.68;;;;;;;;;;4881119;29;20040;-70
2022/03/15 13:11:53;;;;;;;8.85;6.45;;;;;;;;;;4880406;29;20052;-73
2022/03/15 13:14:27;;;;;;;11.20;6.57;;;;;;;;;;4880660;29;20045;-71
2022/03/15 13:17:00;;;;;;;15.80;6.53;;;;;;;;;;4880395;29;20441;-70
2022/03/15 13:19:33;;;;;;;11.37;6.30;;;;;;;;;;4880862;29;20085;-78
2022/03/15 13:22:00;;;;;;;9.43;5.85;;;;;;;;;;4880212;29;20140;-75
2022/03/15 13:24:35;;;;;;;11.25;5.85;;;;;;;;;;4880046;29;20048;-76
2022/03/15 13:27:03;;;;;;;12.90;6.63;;;;;;;;;;4880128;29;20109;-78
2022/03/15 13:29:31;;;;;;;13.00;6.03;;;;;;;;;;4880247;29;20036;-75
2022/03/15 13:31:59;;;;;;;12.77;5.70;;;;;;;;;;4874493;29;20072;-75
2022/03/15 13:34:28;;;;;;;14.82;6.70;;;;;;;;;;4878743;29;20029;-79
2022/03/15 13:37:00;;;;;;;10.80;6.00;;;;;;;;;;4878373;29;20480;-70
2022/03/15 13:39:26;;;;;;;8.65;6.00;;;;;;;;;;4879286;29;20040;-75
2022/03/15 13:41:54;;;;;;;9.48;5.88;;;;;;;;;;4880207;29;20537;-71
2022/03/15 13:44:25;;;;;;;9.70;6.28;;;;;;;;;;4880230;29;20033;-74
2022/03/15 13:47:03;;;;;;;9.85;5.85;;;;;;;;;;4880289;29;20033;-75
2022/03/15 13:49:31;;;;;;;12.65;6.50;;;;;;;;;;4879075;29;20160;-73
2022/03/15 13:52:09;;;;;;;11.38;7.10;;;;;;;;;;4880429;29;20044;-79
2022/03/15 13:55:00;;;;;;;12.63;5.82;;;;;;;;;;4880305;29;20048;-69
2022/03/15 13:57:31;;;;;;;15.68;6.00;;;;;;;;;;4880517;29;20044;-75
2022/03/15 14:00:10;;;;;;;10.60;5.93;;;;;;;;;;4880133;29;20142;-77
2022/03/15 14:02:42;;;;;;;9.27;5.53;;;;;;;;;;4878925;29;20086;-70
2022/03/15 14:05:14;;;;;;;10.02;5.40;;;;;;;;;;4878861;29;20048;-69
2022/03/15 14:07:44;;;;;;;10.45;5.65;;;;;;;;;;4880065;29;20076;-71
2022/03/15 14:10:17;;;;;;;8.60;5.05;;;;;;;;;;4879816;29;20032;-81
2022/03/15 14:12:45;;;;;;;7.70;5.15;;;;;;;;;;4880077;29;20045;-81
2022/03/15 14:15:13;;;;;;;8.50;5.28;;;;;;;;;;4879854;29;20508;-82
2022/03/15 14:18:00;;;;;;;6.40;4.57;;;;;;;;;;4879837;29;20041;-80
2022/03/15 14:20:41;;;;;;;13.20;5.28;;;;;;;;;;4879792;29;20052;-78
2022/03/15 14:23:10;;;;;;;8.73;5.32;;;;;;;;;;4879073;29;20039;-80
2022/03/15 14:25:38;;;;;;;14.02;6.80;;;;;;;;;;4879063;29;20037;-78
2022/03/15 14:28:09;;;;;;;9.55;4.93;;;;;;;;;;4878393;29;20055;-82